createdAt,value
2018-09-05T00:09:50.939Z,27.6
2018-09-05T00:19:50.179Z,27.6
2018-09-05T00:29:49.420Z,27.6
2018-09-05T00:39:48.658Z,27.6
2018-09-05T00:49:47.948Z,27.6
2018-09-05T00:59:47.134Z,27.6
2018-09-05T01:09:46.373Z,27.6
2018-09-05T01:19:45.613Z,27.6
2018-09-05T01:29:44.861Z,27.6
2018-09-05T01:39:44.096Z,27.6
2018-09-05T01:49:43.387Z,27.6
2018-09-05T01:59:42.572Z,27.6
2018-09-05T02:09:41.813Z,27.6
2018-09-05T02:19:41.050Z,27.6
2018-09-05T02:29:40.291Z,27.6
2018-09-05T02:39:39.530Z,27.5
2018-09-05T02:49:38.776Z,27.4
2018-09-05T02:59:38.009Z,27.4
2018-09-05T03:09:37.305Z,27.4
2018-09-05T03:19:36.496Z,27.4
2018-09-05T03:29:35.738Z,27.4
2018-09-05T03:39:34.970Z,27.4
2018-09-05T03:49:34.292Z,27.4
2018-09-05T03:59:33.461Z,27.4
2018-09-05T04:09:32.697Z,27.4
2018-09-05T04:19:31.954Z,27.4
2018-09-05T04:29:31.216Z,27.4
2018-09-05T04:39:30.422Z,27.4
2018-09-05T04:49:29.674Z,27.4
2018-09-05T04:59:28.907Z,27.3
2018-09-05T05:09:28.151Z,27.3
2018-09-05T05:19:27.386Z,27.3
2018-09-05T05:29:26.628Z,27.4
2018-09-05T05:39:25.870Z,27.3
2018-09-05T05:49:25.110Z,27.4
2018-09-05T05:59:24.349Z,27.4
2018-09-05T06:09:23.588Z,27.4
2018-09-05T06:19:22.864Z,27.4
2018-09-05T06:29:22.077Z,27.4
2018-09-05T06:39:21.309Z,27.4
2018-09-05T06:49:20.547Z,27.4
2018-09-05T06:59:19.789Z,27.4
2018-09-05T07:09:19.031Z,27.4
2018-09-05T07:19:18.271Z,27.4
2018-09-05T07:29:17.510Z,27.4
2018-09-05T07:39:16.756Z,27.4
2018-09-05T07:49:15.988Z,27.4
2018-09-05T07:59:15.229Z,27.4
2018-09-05T08:09:14.469Z,27.4
2018-09-05T08:19:13.711Z,27.4
2018-09-05T08:29:13.155Z,27.4
2018-09-05T08:39:12.204Z,27.4
2018-09-05T08:49:11.436Z,27.4
2018-09-05T08:59:10.675Z,27.4
2018-09-05T09:09:09.923Z,27.4
2018-09-05T09:19:09.168Z,27.5
2018-09-05T09:29:08.407Z,27.5
2018-09-05T09:39:07.647Z,27.5
2018-09-05T09:49:06.888Z,27.5
2018-09-05T09:59:06.173Z,27.5
2018-09-05T10:09:05.366Z,27.5
2018-09-05T10:19:04.659Z,27.5
2018-09-05T10:29:03.845Z,27.5
2018-09-05T10:39:03.092Z,27.4
2018-09-05T10:49:02.323Z,27.4
2018-09-05T10:59:01.568Z,27.5
2018-09-05T11:09:00.806Z,27.5
2018-09-05T11:19:00.045Z,27.5
2018-09-05T11:28:59.351Z,27.5
2018-09-05T11:38:58.527Z,27.5
2018-09-05T11:48:57.817Z,27.5
2018-09-05T11:58:57.006Z,27.5
2018-09-05T12:08:56.245Z,27.5
2018-09-05T12:18:55.485Z,27.5
2018-09-05T12:28:54.827Z,27.5
2018-09-05T12:38:53.967Z,27.4
2018-09-05T12:48:53.213Z,27.2
2018-09-05T12:58:52.452Z,27.1
2018-09-05T13:08:51.702Z,27
2018-09-05T13:18:50.932Z,26.9
2018-09-05T13:28:50.176Z,27
2018-09-05T13:38:49.417Z,26.9
2018-09-05T13:48:48.654Z,26.8
2018-09-05T13:58:47.895Z,26.7
2018-09-05T14:08:47.139Z,26.6
2018-09-05T14:18:46.376Z,26.5
2018-09-05T14:28:45.615Z,26.4
2018-09-05T14:38:44.859Z,26.5
2018-09-05T14:48:44.193Z,26.6
2018-09-05T14:58:43.335Z,26.6
2018-09-05T15:08:42.583Z,26.4
2018-09-05T15:18:41.818Z,26.4
2018-09-05T15:28:41.106Z,26.4
2018-09-05T15:38:40.299Z,26.4
2018-09-05T15:48:39.548Z,26.4
2018-09-05T15:58:38.783Z,26.3
2018-09-05T16:08:38.027Z,26.3
2018-09-05T16:18:37.265Z,26.3
2018-09-05T16:28:36.503Z,26.3
2018-09-05T16:38:35.744Z,26.3
2018-09-05T16:48:35.059Z,26.3
2018-09-05T16:58:34.276Z,26.1
2018-09-05T17:08:33.469Z,26
2018-09-05T17:18:32.711Z,25.9
2018-09-05T17:28:32.055Z,25.7
2018-09-05T17:38:31.194Z,25.6
2018-09-05T17:48:30.438Z,25.4
2018-09-05T17:58:29.674Z,25.3
2018-09-05T18:08:28.920Z,25.1
2018-09-05T18:18:28.163Z,25
2018-09-05T18:28:27.403Z,24.9
2018-09-05T18:38:26.648Z,24.9
2018-09-05T18:48:25.891Z,24.8
2018-09-05T18:58:25.132Z,24.8
2018-09-05T19:08:24.408Z,24.9
2018-09-05T19:18:23.638Z,24.8
2018-09-05T19:28:22.895Z,24.8
2018-09-05T19:38:22.104Z,24.8
2018-09-05T19:48:21.343Z,25.1
2018-09-05T19:58:20.588Z,25.3
2018-09-05T20:08:19.835Z,25.4
2018-09-05T20:18:19.074Z,25.6
2018-09-05T20:28:18.365Z,25.8
2018-09-05T20:38:17.554Z,25.9
2018-09-05T20:48:16.797Z,26.1
2018-09-05T20:58:16.036Z,26.1
2018-09-05T21:08:15.282Z,26.3
2018-09-05T21:18:14.617Z,26.3
2018-09-05T21:28:13.764Z,26.3
2018-09-05T21:38:12.999Z,26.4
2018-09-05T21:48:12.263Z,26.4
2018-09-05T21:58:11.480Z,26.4
2018-09-05T22:08:10.720Z,26.4
2018-09-05T22:18:09.960Z,26.5
2018-09-05T22:28:09.202Z,26.6
2018-09-05T22:38:08.439Z,26.6
2018-09-05T22:48:07.679Z,26.6
2018-09-05T22:58:06.921Z,26.6
2018-09-05T23:08:06.194Z,26.6
2018-09-05T23:18:05.406Z,26.6
2018-09-05T23:28:04.645Z,26.6
2018-09-05T23:38:03.877Z,26.7
2018-09-05T23:48:03.117Z,26.7
2018-09-05T23:58:02.354Z,26.7
